Terminal Aerodrome Forecast
Issued by NWS

Home | Current Version | Previous Version | Text Only | Print | Product List | Glossary On
Versions: 1 2 3 4 5 6 7 8 9 10 11 12 13 14 15 16 17 18 19 20
609
FTUS41 KPBZ 101128
TAFHLG
TAF
KHLG 101128Z 1012/1112 25007KT P6SM -SHSN SCT015 BKN050
     FM101500 26007KT P6SM BKN100
     FM110500 20003KT P6SM OVC030
     FM110700 18004KT 2SM -SN OVC020=

USA.gov is the U.S. government's official web portal to all federal, state and local government web resources and services.